EST,Max TemperatureF,Mean TemperatureF,Min TemperatureF,Max Dew PointF,MeanDew PointF,Min DewpointF,Max Humidity, Mean Humidity, Min Humidity, Max Sea Level PressureIn, Mean Sea Level PressureIn, Min Sea Level PressureIn, Max VisibilityMiles, Mean VisibilityMiles, Min VisibilityMiles, Max Wind SpeedMPH, Mean Wind SpeedMPH, Max Gust SpeedMPH,PrecipitationIn, CloudCover, Events, WindDirDegrees
2013-2-1,34,26,17,28,11,2,69,50,31,30.40,30.10,29.80,10,9,2,20,9,32,T,3,Snow,271
2013-2-2,34,24,13,25,16,4,92,65,38,30.40,30.21,30.02,10,8,1,16,4,22,0.01,5,Snow,206
2013-2-3,40,32,24,26,21,14,92,70,47,29.99,29.93,29.85,10,10,10,15,6,26,0.00,6,,254
2013-2-4,37,28,19,21,16,12,75,60,44,30.12,30.03,29.94,10,10,10,13,4,,0.00,1,,218
2013-2-5,56,43,29,34,28,24,75,58,41,29.95,29.92,29.87,10,10,10,17,5,26,0.00,3,,235
2013-2-6,54,41,27,32,26,22,82,56,29,30.33,30.15,29.95,10,10,10,12,4,17,0.00,1,,268
2013-2-7,40,36,32,31,26,24,89,72,54,30.40,30.31,30.13,10,10,6,14,9,,0.21,7,Rain,32
2013-2-8,53,43,32,39,32,22,100,75,50,30.10,29.94,29.81,10,9,5,18,9,30,0.27,5,Rain,322
2013-2-9,49,37,25,21,14,11,75,48,21,30.38,30.23,30.01,10,10,10,23,5,35,0.00,0,,317
2013-2-10,47,34,20,36,19,13,92,62,31,30.51,30.38,30.22,10,10,10,13,3,,0.07,2,Rain,177
2013-2-11,55,46,36,52,40,32,100,75,50,30.21,30.03,29.87,10,6,2,12,5,31,0.06,6,Rain,213
2013-2-12,58,51,43,26,22,18,48,36,23,30.02,29.96,29.91,10,10,10,17,6,25,0.00,0,,251
2013-2-13,45,41,37,39,36,26,100,73,45,29.91,29.75,29.64,10,6,1,10,4,,0.05,7,Rain,20
2013-2-14,52,43,33,30,26,23,73,53,32,30.04,29.98,29.83,10,10,10,10,2,16,0.00,0,,204
2013-2-15,63,45,27,35,30,24,85,57,29,30.08,30.00,29.90,10,10,10,20,5,24,T,3,,224
2013-2-16,45,37,29,31,26,12,82,63,43,29.98,29.90,29.84,10,7,0,10,4,18,0.06,7,Fog-Rain-Snow,16
2013-2-17,34,29,23,11,3,0,50,37,24,30.25,30.09,29.91,10,10,10,20,7,29,0.00,0,,294
2013-2-18,54,36,17,22,13,4,61,43,24,30.38,30.29,30.17,10,10,10,14,6,17,0.00,0,,192
2013-2-19,51,42,33,41,28,13,76,52,27,30.17,29.95,29.79,10,10,5,20,9,24,0.08,4,Rain,209
2013-2-20,47,39,31,14,10,7,41,33,25,30.16,30.04,29.93,10,10,10,17,8,25,0.00,0,,282
2013-2-21,51,37,22,21,14,12,56,39,21,30.30,30.19,30.14,10,10,10,13,3,18,0.00,0,,310
2013-2-22,40,36,32,28,23,15,69,55,40,30.35,30.27,30.18,10,10,4,10,3,14,0.04,8,Rain,78
2013-2-23,53,44,35,40,34,28,92,76,59,30.17,29.98,29.81,10,10,6,9,2,,0.01,6,Rain,27
2013-2-24,58,44,30,36,27,18,100,62,23,30.08,29.91,29.80,10,8,0,16,4,24,0.00,1,Fog,288
2013-2-25,43,35,26,22,19,16,75,55,34,30.23,30.18,30.09,10,10,10,9,3,,0.00,0,,72
2013-2-26,42,35,27,40,32,20,93,75,56,30.18,29.84,29.61,10,5,1,22,9,32,0.71,7,Rain,29
2013-2-27,54,45,36,41,36,30,93,67,41,29.74,29.65,29.58,10,5,0,15,6,22,T,5,Fog,229
2013-2-28,46,40,34,32,25,21,70,54,38,29.82,29.74,29.68,10,10,10,15,7,23,0.00,4,,262